Time,TemperatureF,DewpointF,PressureIn,WindDirection,WindDirectionDegrees,WindSpeedMPH,WindSpeedGustMPH,Humidity,HourlyPrecipIn,Conditions,Clouds,dailyrainin,SoftwareType,DateUTC
2013-12-20 00:01:00,37.1,27.5,30.02,North,-999,-999.0,0.0,68,0.00,,---,0.00,VWS V14.01,2013-12-20 05:01:00,
2013-12-20 00:02:00,37.1,27.5,30.02,North,-999,-999.0,0.0,68,0.00,,---,0.00,VWS V14.01,2013-12-20 05:02:00,
2013-12-20 00:03:00,37.1,27.5,30.02,North,-999,-999.0,0.0,68,0.00,,---,0.00,VWS V14.01,2013-12-20 05:03:00,
2013-12-20 00:04:00,37.1,27.5,30.02,North,-999,-999.0,0.0,68,0.00,,---,0.00,VWS V14.01,2013-12-20 05:04:00,
2013-12-20 00:09:00,37.1,27.5,30.02,North,-999,-999.0,0.0,68,0.00,,---,0.00,VWS V14.01,2013-12-20 05:09:00,
2013-12-20 00:12:00,36.9,27.3,30.02,North,-999,-999.0,0.0,68,0.00,,---,0.00,VWS V14.01,2013-12-20 05:12:00,
2013-12-20 00:17:00,36.9,27.7,30.02,North,-999,-999.0,0.0,69,0.00,,---,0.00,VWS V14.01,2013-12-20 05:17:00,
2013-12-20 00:22:00,36.7,27.5,30.02,North,-999,-999.0,0.0,69,0.00,,---,0.00,VWS V14.01,2013-12-20 05:22:00,
2013-12-20 00:27:00,36.5,27.3,30.02,North,-999,-999.0,0.0,69,0.00,,---,0.00,VWS V14.01,2013-12-20 05:27:00,
2013-12-20 00:32:00,36.5,27.7,30.02,North,-999,-999.0,0.0,70,0.00,,---,0.00,VWS V14.01,2013-12-20 05:32:00,
2013-12-20 00:37:00,36.4,27.6,30.02,North,-999,-999.0,0.0,70,0.00,,---,0.00,VWS V14.01,2013-12-20 05:37:00,
2013-12-20 00:42:00,36.4,27.9,30.01,North,-999,-999.0,0.0,71,0.00,,---,0.00,VWS V14.01,2013-12-20 05:42:00,
2013-12-20 00:47:00,36.0,27.5,30.01,North,-999,-999.0,0.0,71,0.00,,---,0.00,VWS V14.01,2013-12-20 05:47:00,
2013-12-20 00:48:00,36.0,27.5,30.01,North,-999,-999.0,0.0,71,0.00,,---,0.00,VWS V14.01,2013-12-20 05:48:00,
2013-12-20 00:53:00,36.0,27.5,30.01,North,-999,-999.0,0.0,71,0.00,,---,0.00,VWS V14.01,2013-12-20 05:53:00,
2013-12-20 00:58:00,36.0,27.5,30.01,North,-999,-999.0,0.0,71,0.00,,---,0.00,VWS V14.01,2013-12-20 05:58:00,
2013-12-20 01:04:00,36.0,27.5,30.01,North,-999,-999.0,0.0,71,0.00,,---,0.00,VWS V14.01,2013-12-20 06:04:00,
2013-12-20 01:09:00,35.8,27.7,30.00,North,-999,-999.0,0.0,72,0.00,,---,0.00,VWS V14.01,2013-12-20 06:09:00,
2013-12-20 01:14:00,35.6,27.5,30.00,North,-999,-999.0,0.0,72,0.00,,---,0.00,VWS V14.01,2013-12-20 06:14:00,
2013-12-20 01:19:00,35.6,27.5,30.00,North,-999,-999.0,0.0,72,0.00,,---,0.00,VWS V14.01,2013-12-20 06:19:00,
2013-12-20 01:24:00,35.6,27.8,30.00,North,-999,-999.0,0.0,73,0.00,,---,0.00,VWS V14.01,2013-12-20 06:24:00,
2013-12-20 01:29:00,35.6,27.8,30.00,North,-999,-999.0,0.0,73,0.00,,---,0.00,VWS V14.01,2013-12-20 06:29:00,
2013-12-20 01:34:00,35.6,27.8,30.00,North,-999,-999.0,0.0,73,0.00,,---,0.00,VWS V14.01,2013-12-20 06:34:00,
2013-12-20 01:39:00,35.6,27.5,30.00,North,-999,-999.0,0.0,72,0.00,,---,0.00,VWS V14.01,2013-12-20 06:39:00,
2013-12-20 01:44:00,35.6,27.8,29.99,North,-999,-999.0,0.0,73,0.00,,---,0.00,VWS V14.01,2013-12-20 06:44:00,
2013-12-20 01:49:00,35.8,28.0,30.00,North,-999,-999.0,0.0,73,0.00,,---,0.00,VWS V14.01,2013-12-20 06:49:00,
2013-12-20 01:54:00,35.8,28.0,30.00,North,-999,-999.0,0.0,73,0.00,,---,0.00,VWS V14.01,2013-12-20 06:54:00,
2013-12-20 01:59:00,35.6,27.8,30.00,North,-999,-999.0,0.0,73,0.00,,---,0.00,VWS V14.01,2013-12-20 06:59:00,
2013-12-20 02:05:00,35.6,27.8,30.00,North,-999,-999.0,0.0,73,0.00,,---,0.00,VWS V14.01,2013-12-20 07:05:00,
2013-12-20 02:10:00,35.8,28.0,30.00,North,-999,-999.0,0.0,73,0.00,,---,0.00,VWS V14.01,2013-12-20 07:10:00,
2013-12-20 02:15:00,36.2,28.4,30.00,North,-999,-999.0,0.0,73,0.00,,---,0.00,VWS V14.01,2013-12-20 07:15:00,
2013-12-20 02:20:00,36.5,29.0,30.00,North,-999,-999.0,0.0,74,0.00,,---,0.00,VWS V14.01,2013-12-20 07:20:00,
2013-12-20 02:25:00,36.9,29.4,30.00,North,-999,-999.0,0.0,74,0.00,,---,0.00,VWS V14.01,2013-12-20 07:25:00,
2013-12-20 02:30:00,37.1,29.6,30.00,North,-999,-999.0,0.0,74,0.00,,---,0.00,VWS V14.01,2013-12-20 07:30:00,
2013-12-20 02:35:00,37.3,29.8,30.00,North,-999,-999.0,0.0,74,0.00,,---,0.00,VWS V14.01,2013-12-20 07:35:00,
2013-12-20 02:40:00,37.4,29.9,30.00,North,-999,-999.0,0.0,74,0.00,,---,0.00,VWS V14.01,2013-12-20 07:40:00,
2013-12-20 02:45:00,37.8,30.3,30.00,North,-999,-999.0,0.0,74,0.00,,---,0.00,VWS V14.01,2013-12-20 07:45:00,
2013-12-20 02:50:00,38.0,30.5,30.00,North,-999,-999.0,0.0,74,0.00,,---,0.00,VWS V14.01,2013-12-20 07:50:00,
2013-12-20 02:55:00,38.2,30.7,30.00,North,-999,-999.0,0.0,74,0.00,,---,0.00,VWS V14.01,2013-12-20 07:55:00,
2013-12-20 03:01:00,38.2,30.3,30.00,North,-999,-999.0,0.0,73,0.00,,---,0.00,VWS V14.01,2013-12-20 08:01:00,
2013-12-20 03:06:00,38.2,30.3,30.00,North,-999,-999.0,0.0,73,0.00,,---,0.00,VWS V14.01,2013-12-20 08:06:00,
2013-12-20 03:11:00,38.0,30.1,30.00,North,-999,-999.0,0.0,73,0.00,,---,0.00,VWS V14.01,2013-12-20 08:11:00,
2013-12-20 03:16:00,37.8,29.9,30.00,North,-999,-999.0,0.0,73,0.00,,---,0.00,VWS V14.01,2013-12-20 08:16:00,
2013-12-20 03:21:00,37.8,29.9,30.00,North,-999,-999.0,0.0,73,0.00,,---,0.00,VWS V14.01,2013-12-20 08:21:00,
2013-12-20 03:26:00,37.8,30.3,30.00,North,-999,-999.0,0.0,74,0.00,,---,0.00,VWS V14.01,2013-12-20 08:26:00,
2013-12-20 03:31:00,37.6,30.1,30.00,North,-999,-999.0,0.0,74,0.00,,---,0.00,VWS V14.01,2013-12-20 08:31:00,
2013-12-20 03:36:00,37.4,29.9,30.01,North,-999,-999.0,0.0,74,0.00,,---,0.00,VWS V14.01,2013-12-20 08:36:00,
2013-12-20 03:41:00,37.4,29.9,30.01,North,-999,-999.0,0.0,74,0.00,,---,0.00,VWS V14.01,2013-12-20 08:41:00,
2013-12-20 03:46:00,37.3,29.8,30.01,North,-999,-999.0,0.0,74,0.00,,---,0.00,VWS V14.01,2013-12-20 08:46:00,
2013-12-20 03:51:00,37.3,30.1,30.01,North,-999,-999.0,0.0,75,0.00,,---,0.00,VWS V14.01,2013-12-20 08:51:00,
2013-12-20 03:56:00,37.1,29.9,30.01,North,-999,-999.0,0.0,75,0.00,,---,0.00,VWS V14.01,2013-12-20 08:56:00,
2013-12-20 04:02:00,37.3,30.1,30.01,North,-999,-999.0,0.0,75,0.00,,---,0.00,VWS V14.01,2013-12-20 09:02:00,
2013-12-20 04:07:00,37.1,29.9,30.01,North,-999,-999.0,0.0,75,0.00,,---,0.00,VWS V14.01,2013-12-20 09:07:00,
2013-12-20 04:12:00,37.1,29.9,30.00,North,-999,-999.0,0.0,75,0.00,,---,0.00,VWS V14.01,2013-12-20 09:12:00,
2013-12-20 04:17:00,37.1,29.9,30.00,North,-999,-999.0,0.0,75,0.00,,---,0.00,VWS V14.01,2013-12-20 09:17:00,
2013-12-20 04:22:00,37.1,30.2,30.00,North,-999,-999.0,0.0,76,0.00,,---,0.00,VWS V14.01,2013-12-20 09:22:00,
2013-12-20 04:27:00,36.9,29.7,30.00,North,-999,-999.0,0.0,75,0.00,,---,0.00,VWS V14.01,2013-12-20 09:27:00,
2013-12-20 04:32:00,36.9,30.0,30.00,North,-999,-999.0,0.0,76,0.00,,---,0.00,VWS V14.01,2013-12-20 09:32:00,
2013-12-20 04:37:00,36.7,29.9,30.00,North,-999,-999.0,0.0,76,0.00,,---,0.00,VWS V14.01,2013-12-20 09:37:00,
2013-12-20 04:42:00,36.7,29.9,30.00,North,-999,-999.0,0.0,76,0.00,,---,0.00,VWS V14.01,2013-12-20 09:42:00,
2013-12-20 04:47:00,36.7,30.2,30.00,North,-999,-999.0,0.0,77,0.00,,---,0.00,VWS V14.01,2013-12-20 09:47:00,
2013-12-20 04:52:00,36.5,30.0,30.00,North,-999,-999.0,0.0,77,0.00,,---,0.00,VWS V14.01,2013-12-20 09:52:00,
2013-12-20 04:57:00,36.4,29.6,30.00,North,-999,-999.0,0.0,76,0.00,,---,0.00,VWS V14.01,2013-12-20 09:57:00,
2013-12-20 05:02:00,36.4,29.6,30.00,North,-999,-999.0,0.0,76,0.00,,---,0.00,VWS V14.01,2013-12-20 10:02:00,
2013-12-20 05:08:00,36.2,29.4,30.01,North,-999,-999.0,0.0,76,0.00,,---,0.00,VWS V14.01,2013-12-20 10:08:00,
2013-12-20 05:13:00,36.2,29.4,30.01,North,-999,-999.0,0.0,76,0.00,,---,0.00,VWS V14.01,2013-12-20 10:13:00,
2013-12-20 05:18:00,36.0,29.2,30.01,North,-999,-999.0,0.0,76,0.00,,---,0.00,VWS V14.01,2013-12-20 10:18:00,
2013-12-20 05:23:00,36.0,29.2,30.01,North,-999,-999.0,0.0,76,0.00,,---,0.00,VWS V14.01,2013-12-20 10:23:00,
2013-12-20 05:28:00,36.2,29.4,30.01,North,-999,-999.0,0.0,76,0.00,,---,0.00,VWS V14.01,2013-12-20 10:28:00,
2013-12-20 05:33:00,36.2,29.4,30.01,North,-999,-999.0,0.0,76,0.00,,---,0.00,VWS V14.01,2013-12-20 10:33:00,
2013-12-20 05:38:00,36.2,29.7,30.01,North,-999,-999.0,0.0,77,0.00,,---,0.00,VWS V14.01,2013-12-20 10:38:00,
2013-12-20 05:43:00,36.0,29.5,30.00,North,-999,-999.0,0.0,77,0.00,,---,0.00,VWS V14.01,2013-12-20 10:43:00,
2013-12-20 05:48:00,36.0,29.5,30.01,North,-999,-999.0,0.0,77,0.00,,---,0.00,VWS V14.01,2013-12-20 10:48:00,
2013-12-20 05:53:00,35.8,29.3,30.01,North,-999,-999.0,0.0,77,0.00,,---,0.00,VWS V14.01,2013-12-20 10:53:00,
2013-12-20 05:58:00,35.6,29.1,30.01,North,-999,-999.0,0.0,77,0.00,,---,0.00,VWS V14.01,2013-12-20 10:58:00,
2013-12-20 06:04:00,35.6,29.1,30.01,North,-999,-999.0,0.0,77,0.00,,---,0.00,VWS V14.01,2013-12-20 11:04:00,
2013-12-20 06:09:00,35.8,29.3,30.01,North,-999,-999.0,0.0,77,0.00,,---,0.00,VWS V14.01,2013-12-20 11:09:00,
2013-12-20 06:14:00,35.6,29.1,30.01,North,-999,-999.0,0.0,77,0.00,,---,0.00,VWS V14.01,2013-12-20 11:14:00,
2013-12-20 06:19:00,35.6,29.1,30.01,North,-999,-999.0,0.0,77,0.00,,---,0.00,VWS V14.01,2013-12-20 11:19:00,
2013-12-20 06:24:00,35.8,29.6,30.01,North,-999,-999.0,0.0,78,0.00,,---,0.00,VWS V14.01,2013-12-20 11:24:00,
2013-12-20 06:29:00,36.0,29.8,30.00,North,-999,-999.0,0.0,78,0.00,,---,0.00,VWS V14.01,2013-12-20 11:29:00,
2013-12-20 06:34:00,36.4,30.2,30.01,North,-999,-999.0,0.0,78,0.00,,---,0.00,VWS V14.01,2013-12-20 11:34:00,
2013-12-20 06:39:00,36.5,30.6,30.01,North,-999,-999.0,0.0,79,0.00,,---,0.00,VWS V14.01,2013-12-20 11:39:00,
2013-12-20 06:44:00,36.7,30.8,30.01,North,-999,-999.0,0.0,79,0.00,,---,0.00,VWS V14.01,2013-12-20 11:44:00,
2013-12-20 06:49:00,37.1,30.9,30.01,North,-999,-999.0,0.0,78,0.00,,---,0.00,VWS V14.01,2013-12-20 11:49:00,
2013-12-20 06:54:00,37.1,30.9,30.01,North,-999,-999.0,0.0,78,0.00,,---,0.00,VWS V14.01,2013-12-20 11:54:00,
2013-12-20 06:59:00,37.1,30.9,30.01,North,-999,-999.0,0.0,78,0.00,,---,0.00,VWS V14.01,2013-12-20 11:59:00,
2013-12-20 07:05:00,37.1,30.9,30.01,North,-999,-999.0,0.0,78,0.00,,---,0.00,VWS V14.01,2013-12-20 12:05:00,
2013-12-20 07:10:00,37.1,30.9,30.01,North,-999,-999.0,0.0,78,0.00,,---,0.00,VWS V14.01,2013-12-20 12:10:00,
2013-12-20 07:15:00,37.1,30.9,30.01,North,-999,-999.0,0.0,78,0.00,,---,0.00,VWS V14.01,2013-12-20 12:15:00,
2013-12-20 07:20:00,36.9,30.7,30.01,North,-999,-999.0,0.0,78,0.00,,---,0.00,VWS V14.01,2013-12-20 12:20:00,
2013-12-20 07:25:00,36.9,30.7,30.01,North,-999,-999.0,0.0,78,0.00,,---,0.00,VWS V14.01,2013-12-20 12:25:00,
2013-12-20 07:30:00,37.1,30.9,30.02,North,-999,-999.0,0.0,78,0.00,,---,0.00,VWS V14.01,2013-12-20 12:30:00,
2013-12-20 07:35:00,37.1,30.9,30.01,North,-999,-999.0,0.0,78,0.00,,---,0.00,VWS V14.01,2013-12-20 12:35:00,
2013-12-20 07:40:00,37.1,30.9,30.01,North,-999,-999.0,0.0,78,0.00,,---,0.00,VWS V14.01,2013-12-20 12:40:00,
2013-12-20 07:45:00,36.9,30.7,30.01,North,-999,-999.0,0.0,78,0.00,,---,0.00,VWS V14.01,2013-12-20 12:45:00,
2013-12-20 07:50:00,36.9,30.7,30.02,North,-999,-999.0,0.0,78,0.00,,---,0.00,VWS V14.01,2013-12-20 12:50:00,
2013-12-20 07:55:00,37.1,30.9,30.02,North,-999,-999.0,0.0,78,0.00,,---,0.00,VWS V14.01,2013-12-20 12:55:00,
2013-12-20 08:01:00,37.1,30.9,30.02,North,-999,-999.0,0.0,78,0.00,,---,0.00,VWS V14.01,2013-12-20 13:01:00,
2013-12-20 08:06:00,37.1,30.9,30.02,North,-999,-999.0,0.0,78,0.00,,---,0.00,VWS V14.01,2013-12-20 13:06:00,
2013-12-20 08:11:00,37.1,30.9,30.01,North,-999,-999.0,0.0,78,0.00,,---,0.00,VWS V14.01,2013-12-20 13:11:00,
2013-12-20 08:16:00,37.4,31.2,30.02,North,-999,-999.0,0.0,78,0.00,,---,0.00,VWS V14.01,2013-12-20 13:16:00,
2013-12-20 08:21:00,37.8,31.6,30.02,North,-999,-999.0,0.0,78,0.00,,---,0.00,VWS V14.01,2013-12-20 13:21:00,
2013-12-20 08:26:00,38.2,32.0,30.02,North,-999,-999.0,0.0,78,0.00,,---,0.00,VWS V14.01,2013-12-20 13:26:00,
2013-12-20 08:31:00,38.9,33.0,30.02,North,-999,-999.0,0.0,79,0.00,,---,0.00,VWS V14.01,2013-12-20 13:31:00,
2013-12-20 08:36:00,39.2,33.2,30.02,North,-999,-999.0,0.0,79,0.00,,---,0.00,VWS V14.01,2013-12-20 13:36:00,
2013-12-20 08:41:00,39.6,33.6,30.02,North,-999,-999.0,0.0,79,0.00,,---,0.00,VWS V14.01,2013-12-20 13:41:00,
2013-12-20 08:46:00,40.0,34.0,30.02,North,-999,-999.0,0.0,79,0.00,,---,0.00,VWS V14.01,2013-12-20 13:46:00,
2013-12-20 08:51:00,40.7,34.7,30.02,North,-999,-999.0,0.0,79,0.00,,---,0.00,VWS V14.01,2013-12-20 13:51:00,
2013-12-20 08:56:00,41.4,35.1,30.03,North,-999,-999.0,0.0,78,0.00,,---,0.00,VWS V14.01,2013-12-20 13:56:00,
2013-12-20 09:02:00,42.3,35.6,30.02,North,-999,-999.0,0.0,77,0.00,,---,0.00,VWS V14.01,2013-12-20 14:02:00,
2013-12-20 09:07:00,43.6,36.9,30.03,North,-999,-999.0,0.0,77,0.00,,---,0.00,VWS V14.01,2013-12-20 14:07:00,
2013-12-20 09:12:00,45.0,37.6,30.03,North,-999,-999.0,0.0,75,0.00,,---,0.00,VWS V14.01,2013-12-20 14:12:00,
2013-12-20 09:17:00,47.2,39.7,30.03,North,-999,-999.0,0.0,75,0.00,,---,0.00,VWS V14.01,2013-12-20 14:17:00,
2013-12-20 09:22:00,49.7,41.0,30.03,North,-999,-999.0,0.0,72,0.00,,---,0.00,VWS V14.01,2013-12-20 14:22:00,
2013-12-20 09:27:00,50.2,40.1,30.03,North,-999,-999.0,0.0,68,0.00,,---,0.00,VWS V14.01,2013-12-20 14:27:00,
2013-12-20 09:32:00,51.5,41.3,30.03,North,-999,-999.0,0.0,68,0.00,,---,0.00,VWS V14.01,2013-12-20 14:32:00,
2013-12-20 09:37:00,52.9,41.9,30.03,North,-999,-999.0,0.0,66,0.00,,---,0.00,VWS V14.01,2013-12-20 14:37:00,
2013-12-20 09:42:00,53.1,40.8,30.03,North,-999,-999.0,0.0,63,0.00,,---,0.00,VWS V14.01,2013-12-20 14:42:00,
2013-12-20 09:47:00,52.9,40.2,30.03,North,-999,-999.0,0.0,62,0.00,,---,0.00,VWS V14.01,2013-12-20 14:47:00,
2013-12-20 09:52:00,53.3,40.6,30.03,North,-999,-999.0,0.0,62,0.00,,---,0.00,VWS V14.01,2013-12-20 14:52:00,
2013-12-20 09:57:00,54.0,40.9,30.04,North,-999,-999.0,0.0,61,0.00,,---,0.00,VWS V14.01,2013-12-20 14:57:00,
2013-12-20 10:03:00,55.4,42.2,30.03,North,-999,-999.0,0.0,61,0.00,,---,0.00,VWS V14.01,2013-12-20 15:03:00,
2013-12-20 10:08:00,56.3,41.7,30.03,North,-999,-999.0,0.0,58,0.00,,---,0.00,VWS V14.01,2013-12-20 15:08:00,
2013-12-20 10:13:00,57.6,42.5,30.03,North,-999,-999.0,0.0,57,0.00,,---,0.00,VWS V14.01,2013-12-20 15:13:00,
2013-12-20 10:18:00,57.8,42.7,30.03,North,-999,-999.0,0.0,57,0.00,,---,0.00,VWS V14.01,2013-12-20 15:18:00,
2013-12-20 10:23:00,57.6,43.0,30.03,North,-999,-999.0,0.0,58,0.00,,---,0.00,VWS V14.01,2013-12-20 15:23:00,
2013-12-20 10:28:00,56.7,42.1,30.03,North,-999,-999.0,0.0,58,0.00,,---,0.00,VWS V14.01,2013-12-20 15:28:00,
2013-12-20 10:33:00,55.6,41.5,30.03,North,-999,-999.0,0.0,59,0.00,,---,0.00,VWS V14.01,2013-12-20 15:33:00,
2013-12-20 10:38:00,54.7,42.0,30.03,North,-999,-999.0,0.0,62,0.00,,---,0.00,VWS V14.01,2013-12-20 15:38:00,
2013-12-20 10:43:00,54.5,42.2,30.03,North,-999,-999.0,0.0,63,0.00,,---,0.00,VWS V14.01,2013-12-20 15:43:00,
2013-12-20 10:48:00,54.4,42.1,30.02,North,-999,-999.0,0.0,63,0.00,,---,0.00,VWS V14.01,2013-12-20 15:48:00,
2013-12-20 10:53:00,54.4,42.5,30.03,North,-999,-999.0,0.0,64,0.00,,---,0.00,VWS V14.01,2013-12-20 15:53:00,
2013-12-20 10:58:00,54.4,42.5,30.02,North,-999,-999.0,0.0,64,0.00,,---,0.00,VWS V14.01,2013-12-20 15:58:00,
2013-12-20 11:03:00,54.5,42.6,30.03,North,-999,-999.0,0.0,64,0.00,,---,0.00,VWS V14.01,2013-12-20 16:03:00,
2013-12-20 11:09:00,54.5,42.6,30.02,North,-999,-999.0,0.0,64,0.00,,---,0.00,VWS V14.01,2013-12-20 16:09:00,
2013-12-20 11:14:00,54.5,42.6,30.02,North,-999,-999.0,0.0,64,0.00,,---,0.00,VWS V14.01,2013-12-20 16:14:00,
2013-12-20 11:19:00,54.4,42.9,30.02,North,-999,-999.0,0.0,65,0.00,,---,0.00,VWS V14.01,2013-12-20 16:19:00,
2013-12-20 11:24:00,54.4,42.9,30.02,North,-999,-999.0,0.0,65,0.00,,---,0.00,VWS V14.01,2013-12-20 16:24:00,
2013-12-20 11:29:00,54.4,43.3,30.02,North,-999,-999.0,0.0,66,0.00,,---,0.00,VWS V14.01,2013-12-20 16:29:00,
2013-12-20 11:34:00,54.4,42.9,30.01,North,-999,-999.0,0.0,65,0.00,,---,0.00,VWS V14.01,2013-12-20 16:34:00,
2013-12-20 11:39:00,54.4,42.9,30.01,North,-999,-999.0,0.0,65,0.00,,---,0.00,VWS V14.01,2013-12-20 16:39:00,
2013-12-20 11:44:00,54.7,43.2,30.01,North,-999,-999.0,0.0,65,0.00,,---,0.00,VWS V14.01,2013-12-20 16:44:00,
2013-12-20 11:49:00,55.1,43.6,30.01,North,-999,-999.0,0.0,65,0.00,,---,0.00,VWS V14.01,2013-12-20 16:49:00,
2013-12-20 11:54:00,55.3,43.3,30.01,North,-999,-999.0,0.0,64,0.00,,---,0.00,VWS V14.01,2013-12-20 16:54:00,
2013-12-20 11:59:00,55.1,43.2,30.01,North,-999,-999.0,0.0,64,0.00,,---,0.00,VWS V14.01,2013-12-20 16:59:00,
2013-12-20 12:05:00,55.1,43.2,30.00,North,-999,-999.0,0.0,64,0.00,,---,0.00,VWS V14.01,2013-12-20 17:05:00,
2013-12-20 12:10:00,55.1,43.2,30.00,North,-999,-999.0,0.0,64,0.00,,---,0.00,VWS V14.01,2013-12-20 17:10:00,
2013-12-20 12:15:00,54.9,43.4,29.99,North,-999,-999.0,0.0,65,0.00,,---,0.00,VWS V14.01,2013-12-20 17:15:00,
2013-12-20 12:20:00,55.1,43.6,29.99,North,-999,-999.0,0.0,65,0.00,,---,0.00,VWS V14.01,2013-12-20 17:20:00,
2013-12-20 12:25:00,55.1,43.6,30.00,North,-999,-999.0,0.0,65,0.00,,---,0.00,VWS V14.01,2013-12-20 17:25:00,
2013-12-20 12:30:00,55.1,43.6,29.99,North,-999,-999.0,0.0,65,0.00,,---,0.00,VWS V14.01,2013-12-20 17:30:00,
2013-12-20 12:35:00,55.3,43.8,29.99,North,-999,-999.0,0.0,65,0.00,,---,0.00,VWS V14.01,2013-12-20 17:35:00,
2013-12-20 12:40:00,55.4,43.8,29.98,North,-999,-999.0,0.0,65,0.00,,---,0.00,VWS V14.01,2013-12-20 17:40:00,
2013-12-20 12:45:00,55.6,44.0,29.98,North,-999,-999.0,0.0,65,0.00,,---,0.00,VWS V14.01,2013-12-20 17:45:00,
2013-12-20 12:50:00,56.0,44.4,29.98,North,-999,-999.0,0.0,65,0.00,,---,0.00,VWS V14.01,2013-12-20 17:50:00,
2013-12-20 12:55:00,56.3,44.3,29.98,North,-999,-999.0,0.0,64,0.00,,---,0.00,VWS V14.01,2013-12-20 17:55:00,
2013-12-20 13:01:00,56.3,44.3,29.97,North,-999,-999.0,0.0,64,0.00,,---,0.00,VWS V14.01,2013-12-20 18:01:00,
2013-12-20 13:06:00,56.2,44.2,29.97,North,-999,-999.0,0.0,64,0.00,,---,0.00,VWS V14.01,2013-12-20 18:06:00,
2013-12-20 13:11:00,56.2,44.2,29.97,North,-999,-999.0,0.0,64,0.00,,---,0.00,VWS V14.01,2013-12-20 18:11:00,
2013-12-20 13:16:00,56.2,44.6,29.97,North,-999,-999.0,0.0,65,0.00,,---,0.00,VWS V14.01,2013-12-20 18:16:00,
2013-12-20 13:21:00,56.2,44.6,29.97,North,-999,-999.0,0.0,65,0.00,,---,0.00,VWS V14.01,2013-12-20 18:21:00,
2013-12-20 13:26:00,56.2,44.6,29.96,North,-999,-999.0,0.0,65,0.00,,---,0.00,VWS V14.01,2013-12-20 18:26:00,
2013-12-20 13:31:00,56.2,44.6,29.96,North,-999,-999.0,0.0,65,0.00,,---,0.00,VWS V14.01,2013-12-20 18:31:00,
2013-12-20 13:36:00,56.3,44.7,29.96,North,-999,-999.0,0.0,65,0.00,,---,0.00,VWS V14.01,2013-12-20 18:36:00,
2013-12-20 13:41:00,56.7,45.1,29.96,North,-999,-999.0,0.0,65,0.00,,---,0.00,VWS V14.01,2013-12-20 18:41:00,
2013-12-20 13:46:00,57.1,45.5,29.96,North,-999,-999.0,0.0,65,0.00,,---,0.00,VWS V14.01,2013-12-20 18:46:00,
2013-12-20 13:51:00,57.6,45.5,29.96,North,-999,-999.0,0.0,64,0.00,,---,0.00,VWS V14.01,2013-12-20 18:51:00,
2013-12-20 13:56:00,58.1,46.0,29.95,North,-999,-999.0,0.0,64,0.00,,---,0.00,VWS V14.01,2013-12-20 18:56:00,
2013-12-20 14:02:00,58.1,45.6,29.95,North,-999,-999.0,0.0,63,0.00,,---,0.00,VWS V14.01,2013-12-20 19:02:00,
2013-12-20 14:07:00,58.3,45.8,29.95,North,-999,-999.0,0.0,63,0.00,,---,0.00,VWS V14.01,2013-12-20 19:07:00,
2013-12-20 14:12:00,58.3,45.8,29.95,North,-999,-999.0,0.0,63,0.00,,---,0.00,VWS V14.01,2013-12-20 19:12:00,
2013-12-20 14:17:00,58.3,45.8,29.95,North,-999,-999.0,0.0,63,0.00,,---,0.00,VWS V14.01,2013-12-20 19:17:00,
2013-12-20 14:22:00,58.5,46.0,29.95,North,-999,-999.0,0.0,63,0.00,,---,0.00,VWS V14.01,2013-12-20 19:22:00,
2013-12-20 14:27:00,58.5,45.5,29.95,North,-999,-999.0,0.0,62,0.00,,---,0.00,VWS V14.01,2013-12-20 19:27:00,
2013-12-20 14:32:00,58.7,46.2,29.95,North,-999,-999.0,0.0,63,0.00,,---,0.00,VWS V14.01,2013-12-20 19:32:00,
2013-12-20 14:33:00,58.7,45.7,29.95,North,-999,-999.0,0.0,62,0.00,,---,0.00,VWS V14.01,2013-12-20 19:33:00,
2013-12-20 14:38:00,58.7,45.7,29.95,North,-999,-999.0,0.0,62,0.00,,---,0.00,VWS V14.01,2013-12-20 19:38:00,
2013-12-20 14:43:00,58.5,45.5,29.95,North,-999,-999.0,0.0,62,0.00,,---,0.00,VWS V14.01,2013-12-20 19:43:00,
2013-12-20 14:48:00,58.7,46.2,29.95,North,-999,-999.0,0.0,63,0.00,,---,0.00,VWS V14.01,2013-12-20 19:48:00,
2013-12-20 14:53:00,58.7,46.2,29.95,North,-999,-999.0,0.0,63,0.00,,---,0.00,VWS V14.01,2013-12-20 19:53:00,
2013-12-20 14:58:00,58.5,45.5,29.95,North,-999,-999.0,0.0,62,0.00,,---,0.00,VWS V14.01,2013-12-20 19:58:00,
2013-12-20 15:04:00,58.7,45.7,29.95,North,-999,-999.0,0.0,62,0.00,,---,0.00,VWS V14.01,2013-12-20 20:04:00,
2013-12-20 15:09:00,58.7,45.7,29.95,North,-999,-999.0,0.0,62,0.00,,---,0.00,VWS V14.01,2013-12-20 20:09:00,
2013-12-20 15:14:00,58.7,45.7,29.96,North,-999,-999.0,0.0,62,0.00,,---,0.00,VWS V14.01,2013-12-20 20:14:00,
2013-12-20 15:19:00,58.7,45.7,29.95,North,-999,-999.0,0.0,62,0.00,,---,0.00,VWS V14.01,2013-12-20 20:19:00,
2013-12-20 15:24:00,58.7,45.7,29.95,North,-999,-999.0,0.0,62,0.00,,---,0.00,VWS V14.01,2013-12-20 20:24:00,
2013-12-20 15:29:00,58.7,45.7,29.95,North,-999,-999.0,0.0,62,0.00,,---,0.00,VWS V14.01,2013-12-20 20:29:00,
2013-12-20 15:34:00,58.5,45.5,29.95,North,-999,-999.0,0.0,62,0.00,,---,0.00,VWS V14.01,2013-12-20 20:34:00,
2013-12-20 15:39:00,58.5,45.5,29.95,North,-999,-999.0,0.0,62,0.00,,---,0.00,VWS V14.01,2013-12-20 20:39:00,
2013-12-20 15:44:00,58.5,45.5,29.94,North,-999,-999.0,0.0,62,0.00,,---,0.00,VWS V14.01,2013-12-20 20:44:00,
2013-12-20 15:49:00,58.5,45.5,29.94,North,-999,-999.0,0.0,62,0.00,,---,0.00,VWS V14.01,2013-12-20 20:49:00,
2013-12-20 15:54:00,58.7,45.7,29.95,North,-999,-999.0,0.0,62,0.00,,---,0.00,VWS V14.01,2013-12-20 20:54:00,
2013-12-20 15:59:00,58.7,45.7,29.95,North,-999,-999.0,0.0,62,0.00,,---,0.00,VWS V14.01,2013-12-20 20:59:00,
2013-12-20 16:05:00,58.7,45.7,29.95,North,-999,-999.0,0.0,62,0.00,,---,0.00,VWS V14.01,2013-12-20 21:05:00,
2013-12-20 16:10:00,58.7,45.7,29.95,North,-999,-999.0,0.0,62,0.00,,---,0.00,VWS V14.01,2013-12-20 21:10:00,
2013-12-20 16:15:00,58.5,45.5,29.95,North,-999,-999.0,0.0,62,0.00,,---,0.00,VWS V14.01,2013-12-20 21:15:00,
2013-12-20 16:20:00,58.3,45.3,29.95,North,-999,-999.0,0.0,62,0.00,,---,0.00,VWS V14.01,2013-12-20 21:20:00,
2013-12-20 16:25:00,58.1,45.2,29.95,North,-999,-999.0,0.0,62,0.00,,---,0.00,VWS V14.01,2013-12-20 21:25:00,
2013-12-20 16:30:00,58.0,45.1,29.95,North,-999,-999.0,0.0,62,0.00,,---,0.00,VWS V14.01,2013-12-20 21:30:00,
2013-12-20 16:35:00,58.0,45.5,29.95,North,-999,-999.0,0.0,63,0.00,,---,0.00,VWS V14.01,2013-12-20 21:35:00,
2013-12-20 16:40:00,58.0,45.5,29.96,North,-999,-999.0,0.0,63,0.00,,---,0.00,VWS V14.01,2013-12-20 21:40:00,
2013-12-20 16:45:00,57.8,45.3,29.96,North,-999,-999.0,0.0,63,0.00,,---,0.00,VWS V14.01,2013-12-20 21:45:00,
2013-12-20 16:50:00,57.6,45.1,29.96,North,-999,-999.0,0.0,63,0.00,,---,0.00,VWS V14.01,2013-12-20 21:50:00,
2013-12-20 16:55:00,57.6,45.5,29.96,North,-999,-999.0,0.0,64,0.00,,---,0.00,VWS V14.01,2013-12-20 21:55:00,
2013-12-20 17:01:00,57.4,45.3,29.95,North,-999,-999.0,0.0,64,0.00,,---,0.00,VWS V14.01,2013-12-20 22:01:00,
2013-12-20 17:06:00,57.2,45.2,29.95,North,-999,-999.0,0.0,64,0.00,,---,0.00,VWS V14.01,2013-12-20 22:06:00,
2013-12-20 17:11:00,57.2,45.2,29.95,North,-999,-999.0,0.0,64,0.00,,---,0.00,VWS V14.01,2013-12-20 22:11:00,
2013-12-20 17:16:00,57.1,45.0,29.95,North,-999,-999.0,0.0,64,0.00,,---,0.00,VWS V14.01,2013-12-20 22:16:00,
2013-12-20 17:21:00,56.9,44.9,29.95,North,-999,-999.0,0.0,64,0.00,,---,0.00,VWS V14.01,2013-12-20 22:21:00,
2013-12-20 17:26:00,56.5,44.5,29.95,North,-999,-999.0,0.0,64,0.00,,---,0.00,VWS V14.01,2013-12-20 22:26:00,
2013-12-20 17:31:00,56.5,44.5,29.95,North,-999,-999.0,0.0,64,0.00,,---,0.00,VWS V14.01,2013-12-20 22:31:00,
2013-12-20 17:36:00,56.2,44.2,29.95,North,-999,-999.0,0.0,64,0.00,,---,0.00,VWS V14.01,2013-12-20 22:36:00,
2013-12-20 17:41:00,55.8,44.2,29.95,North,-999,-999.0,0.0,65,0.00,,---,0.00,VWS V14.01,2013-12-20 22:41:00,
2013-12-20 17:46:00,55.3,43.8,29.96,North,-999,-999.0,0.0,65,0.00,,---,0.00,VWS V14.01,2013-12-20 22:46:00,
2013-12-20 17:51:00,54.9,43.8,29.96,North,-999,-999.0,0.0,66,0.00,,---,0.00,VWS V14.01,2013-12-20 22:51:00,
2013-12-20 17:56:00,54.5,43.4,29.96,North,-999,-999.0,0.0,66,0.00,,---,0.00,VWS V14.01,2013-12-20 22:56:00,
2013-12-20 18:02:00,54.2,43.5,29.96,North,-999,-999.0,0.0,67,0.00,,---,0.00,VWS V14.01,2013-12-20 23:02:00,
2013-12-20 18:07:00,53.6,42.9,29.96,North,-999,-999.0,0.0,67,0.00,,---,0.00,VWS V14.01,2013-12-20 23:07:00,
2013-12-20 18:12:00,53.3,43.0,29.95,North,-999,-999.0,0.0,68,0.00,,---,0.00,VWS V14.01,2013-12-20 23:12:00,
2013-12-20 18:17:00,52.9,43.0,29.95,North,-999,-999.0,0.0,69,0.00,,---,0.00,VWS V14.01,2013-12-20 23:17:00,
2013-12-20 18:22:00,52.4,42.5,29.96,North,-999,-999.0,0.0,69,0.00,,---,0.00,VWS V14.01,2013-12-20 23:22:00,
2013-12-20 18:27:00,52.2,42.3,29.96,North,-999,-999.0,0.0,69,0.00,,---,0.00,VWS V14.01,2013-12-20 23:27:00,
2013-12-20 18:32:00,51.8,42.0,29.95,North,-999,-999.0,0.0,69,0.00,,---,0.00,VWS V14.01,2013-12-20 23:32:00,
2013-12-20 18:37:00,51.5,41.7,29.95,North,-999,-999.0,0.0,69,0.00,,---,0.00,VWS V14.01,2013-12-20 23:37:00,
2013-12-20 18:42:00,51.1,41.3,29.95,North,-999,-999.0,0.0,69,0.00,,---,0.00,VWS V14.01,2013-12-20 23:42:00,
2013-12-20 18:47:00,50.8,41.4,29.96,North,-999,-999.0,0.0,70,0.00,,---,0.00,VWS V14.01,2013-12-20 23:47:00,
2013-12-20 18:52:00,50.4,41.4,29.96,North,-999,-999.0,0.0,71,0.00,,---,0.00,VWS V14.01,2013-12-20 23:52:00,
2013-12-20 18:57:00,50.2,41.2,29.95,North,-999,-999.0,0.0,71,0.00,,---,0.00,VWS V14.01,2013-12-20 23:57:00,
2013-12-20 19:03:00,49.9,41.2,29.96,North,-999,-999.0,0.0,72,0.00,,---,0.00,VWS V14.01,2013-12-21 00:03:00,
2013-12-20 19:08:00,49.7,41.0,29.96,North,-999,-999.0,0.0,72,0.00,,---,0.00,VWS V14.01,2013-12-21 00:08:00,
2013-12-20 19:13:00,49.5,41.2,29.96,North,-999,-999.0,0.0,73,0.00,,---,0.00,VWS V14.01,2013-12-21 00:13:00,
2013-12-20 19:18:00,49.5,41.2,29.96,North,-999,-999.0,0.0,73,0.00,,---,0.00,VWS V14.01,2013-12-21 00:18:00,
2013-12-20 19:23:00,49.3,41.4,29.96,North,-999,-999.0,0.0,74,0.00,,---,0.00,VWS V14.01,2013-12-21 00:23:00,
2013-12-20 19:28:00,49.3,41.4,29.96,North,-999,-999.0,0.0,74,0.00,,---,0.00,VWS V14.01,2013-12-21 00:28:00,
2013-12-20 19:33:00,49.1,41.2,29.96,North,-999,-999.0,0.0,74,0.00,,---,0.00,VWS V14.01,2013-12-21 00:33:00,
2013-12-20 19:38:00,48.8,40.9,29.96,North,-999,-999.0,0.0,74,0.00,,---,0.00,VWS V14.01,2013-12-21 00:38:00,
2013-12-20 19:43:00,48.6,41.0,29.96,North,-999,-999.0,0.0,75,0.00,,---,0.00,VWS V14.01,2013-12-21 00:43:00,
2013-12-20 19:48:00,48.6,41.0,29.97,North,-999,-999.0,0.0,75,0.00,,---,0.00,VWS V14.01,2013-12-21 00:48:00,
2013-12-20 19:53:00,48.4,41.2,29.97,North,-999,-999.0,0.0,76,0.00,,---,0.00,VWS V14.01,2013-12-21 00:53:00,
2013-12-20 19:58:00,48.4,41.2,29.97,North,-999,-999.0,0.0,76,0.00,,---,0.00,VWS V14.01,2013-12-21 00:58:00,
2013-12-20 20:04:00,48.2,41.0,29.97,North,-999,-999.0,0.0,76,0.00,,---,0.00,VWS V14.01,2013-12-21 01:04:00,
2013-12-20 20:09:00,48.1,40.9,29.97,North,-999,-999.0,0.0,76,0.00,,---,0.00,VWS V14.01,2013-12-21 01:09:00,
2013-12-20 20:14:00,47.9,40.7,29.97,North,-999,-999.0,0.0,76,0.00,,---,0.00,VWS V14.01,2013-12-21 01:14:00,
2013-12-20 20:19:00,47.7,40.8,29.97,North,-999,-999.0,0.0,77,0.00,,---,0.00,VWS V14.01,2013-12-21 01:19:00,
2013-12-20 20:24:00,47.5,40.7,29.97,North,-999,-999.0,0.0,77,0.00,,---,0.00,VWS V14.01,2013-12-21 01:24:00,
2013-12-20 20:29:00,47.3,40.5,29.97,North,-999,-999.0,0.0,77,0.00,,---,0.00,VWS V14.01,2013-12-21 01:29:00,
2013-12-20 20:34:00,47.2,40.7,29.97,North,-999,-999.0,0.0,78,0.00,,---,0.00,VWS V14.01,2013-12-21 01:34:00,
2013-12-20 20:39:00,47.2,40.7,29.97,North,-999,-999.0,0.0,78,0.00,,---,0.00,VWS V14.01,2013-12-21 01:39:00,
2013-12-20 20:44:00,47.0,40.2,29.97,North,-999,-999.0,0.0,77,0.00,,---,0.00,VWS V14.01,2013-12-21 01:44:00,
2013-12-20 20:49:00,46.8,40.0,29.98,North,-999,-999.0,0.0,77,0.00,,---,0.00,VWS V14.01,2013-12-21 01:49:00,
2013-12-20 20:54:00,46.8,40.3,29.97,North,-999,-999.0,0.0,78,0.00,,---,0.00,VWS V14.01,2013-12-21 01:54:00,
2013-12-20 20:59:00,46.6,40.1,29.98,North,-999,-999.0,0.0,78,0.00,,---,0.00,VWS V14.01,2013-12-21 01:59:00,
2013-12-20 21:05:00,46.4,40.2,29.97,North,-999,-999.0,0.0,79,0.00,,---,0.00,VWS V14.01,2013-12-21 02:05:00,
2013-12-20 21:10:00,46.3,39.8,29.97,North,-999,-999.0,0.0,78,0.00,,---,0.00,VWS V14.01,2013-12-21 02:10:00,
2013-12-20 21:15:00,46.1,40.0,29.97,North,-999,-999.0,0.0,79,0.00,,---,0.00,VWS V14.01,2013-12-21 02:15:00,
2013-12-20 21:20:00,46.1,40.0,29.97,North,-999,-999.0,0.0,79,0.00,,---,0.00,VWS V14.01,2013-12-21 02:20:00,
2013-12-20 21:25:00,45.9,39.8,29.97,North,-999,-999.0,0.0,79,0.00,,---,0.00,VWS V14.01,2013-12-21 02:25:00,
2013-12-20 21:30:00,45.9,40.1,29.97,North,-999,-999.0,0.0,80,0.00,,---,0.00,VWS V14.01,2013-12-21 02:30:00,
2013-12-20 21:35:00,45.7,39.6,29.97,North,-999,-999.0,0.0,79,0.00,,---,0.00,VWS V14.01,2013-12-21 02:35:00,
2013-12-20 21:40:00,45.7,39.9,29.97,North,-999,-999.0,0.0,80,0.00,,---,0.00,VWS V14.01,2013-12-21 02:40:00,
2013-12-20 21:45:00,45.7,39.9,29.97,North,-999,-999.0,0.0,80,0.00,,---,0.00,VWS V14.01,2013-12-21 02:45:00,
2013-12-20 21:50:00,45.7,40.2,29.97,North,-999,-999.0,0.0,81,0.00,,---,0.00,VWS V14.01,2013-12-21 02:50:00,
2013-12-20 21:55:00,45.5,39.7,29.97,North,-999,-999.0,0.0,80,0.00,,---,0.00,VWS V14.01,2013-12-21 02:55:00,
2013-12-20 22:01:00,45.5,39.7,29.97,North,-999,-999.0,0.0,80,0.00,,---,0.00,VWS V14.01,2013-12-21 03:01:00,
2013-12-20 22:06:00,45.7,39.9,29.97,North,-999,-999.0,0.0,80,0.00,,---,0.00,VWS V14.01,2013-12-21 03:06:00,
2013-12-20 22:11:00,45.7,39.9,29.96,North,-999,-999.0,0.0,80,0.00,,---,0.00,VWS V14.01,2013-12-21 03:11:00,
2013-12-20 22:16:00,45.5,39.7,29.96,North,-999,-999.0,0.0,80,0.00,,---,0.00,VWS V14.01,2013-12-21 03:16:00,
2013-12-20 22:21:00,45.5,40.0,29.96,North,-999,-999.0,0.0,81,0.00,,---,0.00,VWS V14.01,2013-12-21 03:21:00,
2013-12-20 22:26:00,45.5,40.0,29.96,North,-999,-999.0,0.0,81,0.00,,---,0.00,VWS V14.01,2013-12-21 03:26:00,
2013-12-20 22:31:00,45.4,39.9,29.96,North,-999,-999.0,0.0,81,0.00,,---,0.00,VWS V14.01,2013-12-21 03:31:00,
2013-12-20 22:36:00,45.4,39.9,29.95,North,-999,-999.0,0.0,81,0.00,,---,0.00,VWS V14.01,2013-12-21 03:36:00,
2013-12-20 22:41:00,45.4,39.9,29.95,North,-999,-999.0,0.0,81,0.00,,---,0.00,VWS V14.01,2013-12-21 03:41:00,
2013-12-20 22:46:00,45.4,39.9,29.95,North,-999,-999.0,0.0,81,0.00,,---,0.00,VWS V14.01,2013-12-21 03:46:00,
2013-12-20 22:51:00,45.4,39.9,29.95,North,-999,-999.0,0.0,81,0.00,,---,0.00,VWS V14.01,2013-12-21 03:51:00,
2013-12-20 22:56:00,45.4,39.9,29.95,North,-999,-999.0,0.0,81,0.00,,---,0.00,VWS V14.01,2013-12-21 03:56:00,
2013-12-20 23:02:00,45.4,39.9,29.95,North,-999,-999.0,0.0,81,0.00,,---,0.00,VWS V14.01,2013-12-21 04:02:00,
2013-12-20 23:07:00,45.4,39.9,29.95,North,-999,-999.0,0.0,81,0.00,,---,0.00,VWS V14.01,2013-12-21 04:07:00,
2013-12-20 23:12:00,45.2,39.7,29.95,North,-999,-999.0,0.0,81,0.00,,---,0.00,VWS V14.01,2013-12-21 04:12:00,
2013-12-20 23:17:00,45.2,39.7,29.95,North,-999,-999.0,0.0,81,0.00,,---,0.00,VWS V14.01,2013-12-21 04:17:00,
2013-12-20 23:22:00,45.0,39.5,29.95,North,-999,-999.0,0.0,81,0.00,,---,0.00,VWS V14.01,2013-12-21 04:22:00,
2013-12-20 23:27:00,45.0,39.5,29.95,North,-999,-999.0,0.0,81,0.00,,---,0.00,VWS V14.01,2013-12-21 04:27:00,
2013-12-20 23:32:00,44.8,39.3,29.95,North,-999,-999.0,0.0,81,0.00,,---,0.00,VWS V14.01,2013-12-21 04:32:00,
2013-12-20 23:37:00,44.6,39.1,29.95,North,-999,-999.0,0.0,81,0.00,,---,0.00,VWS V14.01,2013-12-21 04:37:00,
2013-12-20 23:42:00,44.6,39.1,29.95,North,-999,-999.0,0.0,81,0.00,,---,0.00,VWS V14.01,2013-12-21 04:42:00,
2013-12-20 23:47:00,44.6,39.5,29.95,North,-999,-999.0,0.0,82,0.00,,---,0.00,VWS V14.01,2013-12-21 04:47:00,
2013-12-20 23:52:00,44.6,39.5,29.95,North,-999,-999.0,0.0,82,0.00,,---,0.00,VWS V14.01,2013-12-21 04:52:00,
2013-12-20 23:57:00,44.5,39.4,29.95,North,-999,-999.0,0.0,82,0.00,,---,0.00,VWS V14.01,2013-12-21 04:57:00,